sensor_id;sensor_type;location;lat;lon;timestamp;P1;durP1;ratioP1;P2;durP2;ratioP2
850;SDS011;412;51.400;7.480;2023-06-01T00:01:36;4.63;;;4.30;;
850;SDS011;412;51.400;7.480;2023-06-01T00:04:02;5.63;;;5.13;;
850;SDS011;412;51.400;7.480;2023-06-01T00:06:28;4.90;;;4.50;;
850;SDS011;412;51.400;7.480;2023-06-01T00:08:58;6.60;;;4.90;;
850;SDS011;412;51.400;7.480;2023-06-01T00:11:24;5.10;;;4.60;;
850;SDS011;412;51.400;7.480;2023-06-01T00:13:52;7.40;;;5.17;;
850;SDS011;412;51.400;7.480;2023-06-01T00:16:18;5.47;;;4.97;;
850;SDS011;412;51.400;7.480;2023-06-01T00:18:44;5.33;;;4.83;;
850;SDS011;412;51.400;7.480;2023-06-01T00:21:10;5.17;;;4.77;;
850;SDS011;412;51.400;7.480;2023-06-01T00:23:37;5.53;;;4.87;;
850;SDS011;412;51.400;7.480;2023-06-01T00:26:06;4.87;;;4.47;;
850;SDS011;412;51.400;7.480;2023-06-01T00:28:33;5.03;;;4.60;;
850;SDS011;412;51.400;7.480;2023-06-01T00:30:59;4.83;;;4.53;;
850;SDS011;412;51.400;7.480;2023-06-01T00:33:25;5.33;;;4.93;;
850;SDS011;412;51.400;7.480;2023-06-01T00:35:51;5.00;;;4.50;;
850;SDS011;412;51.400;7.480;2023-06-01T00:38:17;5.20;;;4.80;;
850;SDS011;412;51.400;7.480;2023-06-01T00:40:43;5.87;;;5.37;;
850;SDS011;412;51.400;7.480;2023-06-01T00:43:10;5.97;;;5.00;;
850;SDS011;412;51.400;7.480;2023-06-01T00:45:36;6.30;;;5.70;;
850;SDS011;412;51.400;7.480;2023-06-01T00:48:05;5.00;;;4.70;;
850;SDS011;412;51.400;7.480;2023-06-01T00:50:31;5.27;;;4.77;;
850;SDS011;412;51.400;7.480;2023-06-01T00:52:58;5.30;;;4.90;;
850;SDS011;412;51.400;7.480;2023-06-01T00:55:25;5.10;;;4.70;;
850;SDS011;412;51.400;7.480;2023-06-01T00:57:52;7.30;;;5.20;;
850;SDS011;412;51.400;7.480;2023-06-01T01:00:20;5.17;;;4.80;;
850;SDS011;412;51.400;7.480;2023-06-01T01:02:48;6.47;;;5.73;;
850;SDS011;412;51.400;7.480;2023-06-01T01:05:14;5.83;;;5.17;;
850;SDS011;412;51.400;7.480;2023-06-01T01:18:36;6.10;;;5.50;;
850;SDS011;412;51.400;7.480;2023-06-01T01:21:07;5.67;;;5.07;;
850;SDS011;412;51.400;7.480;2023-06-01T01:29:17;10.53;;;7.30;;
850;SDS011;412;51.400;7.480;2023-06-01T01:31:46;6.60;;;6.00;;
850;SDS011;412;51.400;7.480;2023-06-01T01:34:15;8.33;;;5.60;;
850;SDS011;412;51.400;7.480;2023-06-01T01:36:45;6.70;;;5.20;;
850;SDS011;412;51.400;7.480;2023-06-01T01:39:11;6.17;;;5.60;;
850;SDS011;412;51.400;7.480;2023-06-01T01:41:37;5.97;;;5.23;;
850;SDS011;412;51.400;7.480;2023-06-01T01:44:03;7.30;;;5.40;;
850;SDS011;412;51.400;7.480;2023-06-01T01:49:41;7.20;;;5.80;;
850;SDS011;412;51.400;7.480;2023-06-01T01:52:21;7.83;;;6.97;;
850;SDS011;412;51.400;7.480;2023-06-01T01:54:51;8.10;;;7.30;;
850;SDS011;412;51.400;7.480;2023-06-01T01:57:18;9.20;;;7.70;;
850;SDS011;412;51.400;7.480;2023-06-01T01:59:47;9.57;;;8.67;;
850;SDS011;412;51.400;7.480;2023-06-01T02:02:14;9.93;;;8.43;;
850;SDS011;412;51.400;7.480;2023-06-01T02:04:41;10.63;;;8.80;;
850;SDS011;412;51.400;7.480;2023-06-01T02:07:07;11.30;;;9.73;;
850;SDS011;412;51.400;7.480;2023-06-01T02:09:33;10.90;;;9.33;;
850;SDS011;412;51.400;7.480;2023-06-01T02:11:59;12.50;;;10.50;;
850;SDS011;412;51.400;7.480;2023-06-01T02:14:25;10.57;;;9.47;;
850;SDS011;412;51.400;7.480;2023-06-01T02:16:51;12.93;;;10.50;;
850;SDS011;412;51.400;7.480;2023-06-01T02:19:19;13.30;;;9.67;;
850;SDS011;412;51.400;7.480;2023-06-01T02:21:45;11.40;;;10.00;;
850;SDS011;412;51.400;7.480;2023-06-01T02:24:11;11.30;;;9.87;;
850;SDS011;412;51.400;7.480;2023-06-01T02:26:37;12.03;;;10.13;;
850;SDS011;412;51.400;7.480;2023-06-01T02:29:03;12.70;;;9.80;;
850;SDS011;412;51.400;7.480;2023-06-01T02:31:32;11.93;;;9.97;;
850;SDS011;412;51.400;7.480;2023-06-01T02:34:01;15.70;;;10.30;;
850;SDS011;412;51.400;7.480;2023-06-01T02:36:27;12.30;;;9.93;;
850;SDS011;412;51.400;7.480;2023-06-01T02:38:57;13.33;;;10.73;;
850;SDS011;412;51.400;7.480;2023-06-01T02:41:23;12.50;;;9.27;;
850;SDS011;412;51.400;7.480;2023-06-01T02:43:51;13.17;;;10.57;;
850;SDS011;412;51.400;7.480;2023-06-01T02:46:17;14.60;;;10.67;;
850;SDS011;412;51.400;7.480;2023-06-01T02:48:44;14.27;;;10.07;;
850;SDS011;412;51.400;7.480;2023-06-01T02:51:10;13.77;;;10.90;;
850;SDS011;412;51.400;7.480;2023-06-01T02:53:35;12.80;;;10.80;;
850;SDS011;412;51.400;7.480;2023-06-01T02:56:01;15.53;;;10.93;;
850;SDS011;412;51.400;7.480;2023-06-01T02:58:27;14.30;;;11.37;;
850;SDS011;412;51.400;7.480;2023-06-01T03:00:57;13.83;;;11.10;;
850;SDS011;412;51.400;7.480;2023-06-01T03:03:23;16.67;;;12.33;;
850;SDS011;412;51.400;7.480;2023-06-01T03:05:50;14.53;;;11.47;;
850;SDS011;412;51.400;7.480;2023-06-01T03:08:16;17.03;;;11.70;;
850;SDS011;412;51.400;7.480;2023-06-01T03:10:42;19.10;;;11.80;;
850;SDS011;412;51.400;7.480;2023-06-01T03:13:08;16.43;;;12.60;;
850;SDS011;412;51.400;7.480;2023-06-01T03:15:34;14.90;;;12.27;;
850;SDS011;412;51.400;7.480;2023-06-01T03:18:02;14.87;;;11.57;;
850;SDS011;412;51.400;7.480;2023-06-01T03:20:29;15.37;;;11.90;;
850;SDS011;412;51.400;7.480;2023-06-01T03:22:54;15.20;;;10.87;;
850;SDS011;412;51.400;7.480;2023-06-01T03:25:20;19.27;;;12.60;;
850;SDS011;412;51.400;7.480;2023-06-01T03:27:46;19.77;;;12.93;;
850;SDS011;412;51.400;7.480;2023-06-01T03:30:12;18.37;;;13.43;;
850;SDS011;412;51.400;7.480;2023-06-01T03:32:41;15.00;;;11.53;;
850;SDS011;412;51.400;7.480;2023-06-01T03:35:08;16.77;;;13.17;;
850;SDS011;412;51.400;7.480;2023-06-01T03:37:35;15.53;;;12.70;;
850;SDS011;412;51.400;7.480;2023-06-01T03:40:02;18.33;;;14.10;;
850;SDS011;412;51.400;7.480;2023-06-01T03:42:38;18.30;;;14.03;;
850;SDS011;412;51.400;7.480;2023-06-01T03:45:08;17.00;;;15.30;;
850;SDS011;412;51.400;7.480;2023-06-01T03:47:35;15.73;;;12.97;;
850;SDS011;412;51.400;7.480;2023-06-01T03:50:01;17.70;;;13.93;;
850;SDS011;412;51.400;7.480;2023-06-01T03:52:28;16.80;;;13.27;;
850;SDS011;412;51.400;7.480;2023-06-01T03:54:55;17.27;;;14.10;;
850;SDS011;412;51.400;7.480;2023-06-01T03:57:22;21.30;;;14.90;;
850;SDS011;412;51.400;7.480;2023-06-01T03:59:48;18.10;;;13.10;;
850;SDS011;412;51.400;7.480;2023-06-01T04:02:15;22.77;;;14.83;;
850;SDS011;412;51.400;7.480;2023-06-01T04:04:44;19.40;;;14.90;;
850;SDS011;412;51.400;7.480;2023-06-01T04:07:11;19.37;;;15.30;;
850;SDS011;412;51.400;7.480;2023-06-01T04:09:42;19.77;;;15.07;;
850;SDS011;412;51.400;7.480;2023-06-01T04:12:09;19.60;;;14.43;;
850;SDS011;412;51.400;7.480;2023-06-01T04:14:38;20.37;;;14.77;;
850;SDS011;412;51.400;7.480;2023-06-01T04:17:04;20.43;;;13.97;;
850;SDS011;412;51.400;7.480;2023-06-01T04:19:34;20.17;;;15.43;;
850;SDS011;412;51.400;7.480;2023-06-01T04:22:00;24.03;;;15.20;;
850;SDS011;412;51.400;7.480;2023-06-01T04:24:26;24.67;;;15.47;;
850;SDS011;412;51.400;7.480;2023-06-01T04:26:52;18.77;;;15.63;;
850;SDS011;412;51.400;7.480;2023-06-01T04:29:18;19.43;;;14.57;;
850;SDS011;412;51.400;7.480;2023-06-01T04:31:47;22.90;;;13.77;;
850;SDS011;412;51.400;7.480;2023-06-01T04:34:15;24.47;;;14.90;;
850;SDS011;412;51.400;7.480;2023-06-01T04:36:40;19.83;;;15.43;;
850;SDS011;412;51.400;7.480;2023-06-01T04:39:06;22.50;;;17.00;;
850;SDS011;412;51.400;7.480;2023-06-01T04:41:35;18.90;;;16.23;;
850;SDS011;412;51.400;7.480;2023-06-01T04:44:03;22.33;;;14.83;;
850;SDS011;412;51.400;7.480;2023-06-01T04:46:32;19.33;;;14.30;;
850;SDS011;412;51.400;7.480;2023-06-01T04:49:00;21.87;;;14.57;;
850;SDS011;412;51.400;7.480;2023-06-01T04:51:26;20.10;;;15.10;;
850;SDS011;412;51.400;7.480;2023-06-01T04:53:54;22.60;;;18.40;;
850;SDS011;412;51.400;7.480;2023-06-01T04:56:20;21.53;;;14.87;;
850;SDS011;412;51.400;7.480;2023-06-01T04:58:52;21.80;;;15.10;;
850;SDS011;412;51.400;7.480;2023-06-01T05:01:19;19.90;;;14.50;;
850;SDS011;412;51.400;7.480;2023-06-01T05:03:50;20.30;;;18.00;;
850;SDS011;412;51.400;7.480;2023-06-01T05:06:17;23.23;;;18.00;;
850;SDS011;412;51.400;7.480;2023-06-01T05:08:44;19.90;;;17.33;;
850;SDS011;412;51.400;7.480;2023-06-01T05:11:10;24.50;;;18.07;;
850;SDS011;412;51.400;7.480;2023-06-01T05:13:37;22.83;;;16.83;;
850;SDS011;412;51.400;7.480;2023-06-01T05:16:04;23.00;;;15.90;;
850;SDS011;412;51.400;7.480;2023-06-01T05:18:32;23.17;;;18.13;;
850;SDS011;412;51.400;7.480;2023-06-01T05:20:58;26.87;;;17.80;;
850;SDS011;412;51.400;7.480;2023-06-01T05:23:24;24.20;;;18.20;;
850;SDS011;412;51.400;7.480;2023-06-01T05:25:51;22.53;;;17.00;;
850;SDS011;412;51.400;7.480;2023-06-01T05:28:17;26.77;;;18.87;;
850;SDS011;412;51.400;7.480;2023-06-01T05:30:43;24.00;;;18.07;;
850;SDS011;412;51.400;7.480;2023-06-01T05:33:09;22.70;;;18.77;;
850;SDS011;412;51.400;7.480;2023-06-01T05:35:34;18.90;;;16.10;;
850;SDS011;412;51.400;7.480;2023-06-01T05:38:00;19.90;;;15.10;;
850;SDS011;412;51.400;7.480;2023-06-01T05:40:26;21.03;;;16.30;;
850;SDS011;412;51.400;7.480;2023-06-01T05:42:52;20.10;;;17.77;;
850;SDS011;412;51.400;7.480;2023-06-01T05:45:18;22.07;;;16.50;;
850;SDS011;412;51.400;7.480;2023-06-01T05:47:44;19.47;;;15.17;;
850;SDS011;412;51.400;7.480;2023-06-01T05:50:11;21.90;;;16.90;;
850;SDS011;412;51.400;7.480;2023-06-01T05:52:37;20.73;;;16.43;;
850;SDS011;412;51.400;7.480;2023-06-01T05:55:04;21.20;;;14.50;;
850;SDS011;412;51.400;7.480;2023-06-01T05:57:30;19.20;;;17.03;;
850;SDS011;412;51.400;7.480;2023-06-01T05:59:56;24.20;;;16.70;;
850;SDS011;412;51.400;7.480;2023-06-01T06:02:22;22.40;;;16.77;;
850;SDS011;412;51.400;7.480;2023-06-01T06:04:47;17.37;;;14.83;;
850;SDS011;412;51.400;7.480;2023-06-01T06:07:13;18.83;;;15.57;;
850;SDS011;412;51.400;7.480;2023-06-01T06:09:39;19.03;;;15.13;;
850;SDS011;412;51.400;7.480;2023-06-01T06:12:06;18.40;;;14.90;;
850;SDS011;412;51.400;7.480;2023-06-01T06:14:32;20.60;;;14.13;;
850;SDS011;412;51.400;7.480;2023-06-01T06:16:58;18.73;;;14.40;;
850;SDS011;412;51.400;7.480;2023-06-01T06:19:25;18.97;;;16.67;;
850;SDS011;412;51.400;7.480;2023-06-01T06:21:51;18.33;;;15.40;;
850;SDS011;412;51.400;7.480;2023-06-01T06:24:17;21.07;;;16.17;;
850;SDS011;412;51.400;7.480;2023-06-01T06:26:42;17.57;;;14.60;;
850;SDS011;412;51.400;7.480;2023-06-01T06:29:08;21.90;;;16.77;;
850;SDS011;412;51.400;7.480;2023-06-01T06:31:35;22.03;;;16.43;;
850;SDS011;412;51.400;7.480;2023-06-01T06:34:01;21.53;;;17.10;;
850;SDS011;412;51.400;7.480;2023-06-01T06:36:27;18.47;;;15.57;;
850;SDS011;412;51.400;7.480;2023-06-01T06:38:52;20.20;;;16.20;;
850;SDS011;412;51.400;7.480;2023-06-01T06:41:18;25.97;;;17.83;;
850;SDS011;412;51.400;7.480;2023-06-01T06:43:44;20.77;;;16.33;;
850;SDS011;412;51.400;7.480;2023-06-01T06:46:09;23.60;;;16.83;;
850;SDS011;412;51.400;7.480;2023-06-01T06:48:35;20.93;;;17.27;;
850;SDS011;412;51.400;7.480;2023-06-01T06:51:01;22.30;;;16.53;;
850;SDS011;412;51.400;7.480;2023-06-01T06:53:29;21.63;;;17.73;;
850;SDS011;412;51.400;7.480;2023-06-01T06:55:55;19.80;;;15.50;;
850;SDS011;412;51.400;7.480;2023-06-01T06:58:21;20.50;;;15.30;;
850;SDS011;412;51.400;7.480;2023-06-01T07:00:46;25.00;;;18.17;;
850;SDS011;412;51.400;7.480;2023-06-01T07:03:12;23.07;;;17.70;;
850;SDS011;412;51.400;7.480;2023-06-01T07:05:38;25.87;;;19.10;;
850;SDS011;412;51.400;7.480;2023-06-01T07:08:05;22.93;;;18.90;;
850;SDS011;412;51.400;7.480;2023-06-01T07:10:30;28.30;;;20.73;;
850;SDS011;412;51.400;7.480;2023-06-01T07:12:56;30.10;;;20.20;;
850;SDS011;412;51.400;7.480;2023-06-01T07:15:23;32.83;;;21.80;;
850;SDS011;412;51.400;7.480;2023-06-01T07:17:50;31.00;;;24.17;;
850;SDS011;412;51.400;7.480;2023-06-01T07:20:16;35.60;;;25.10;;
850;SDS011;412;51.400;7.480;2023-06-01T07:22:41;42.10;;;27.83;;
850;SDS011;412;51.400;7.480;2023-06-01T07:25:08;43.20;;;28.17;;
850;SDS011;412;51.400;7.480;2023-06-01T07:27:35;47.73;;;31.30;;
850;SDS011;412;51.400;7.480;2023-06-01T07:30:03;41.90;;;29.60;;
850;SDS011;412;51.400;7.480;2023-06-01T07:32:29;47.23;;;30.40;;
850;SDS011;412;51.400;7.480;2023-06-01T07:34:55;48.93;;;32.13;;
850;SDS011;412;51.400;7.480;2023-06-01T07:37:23;43.77;;;29.43;;
850;SDS011;412;51.400;7.480;2023-06-01T07:39:52;46.67;;;28.97;;
850;SDS011;412;51.400;7.480;2023-06-01T07:42:21;44.83;;;29.90;;
850;SDS011;412;51.400;7.480;2023-06-01T07:44:47;40.93;;;26.50;;
850;SDS011;412;51.400;7.480;2023-06-01T07:47:12;46.47;;;29.87;;
850;SDS011;412;51.400;7.480;2023-06-01T07:49:38;44.80;;;27.70;;
850;SDS011;412;51.400;7.480;2023-06-01T07:52:05;38.77;;;27.10;;
850;SDS011;412;51.400;7.480;2023-06-01T07:54:34;43.90;;;28.60;;
850;SDS011;412;51.400;7.480;2023-06-01T07:57:03;43.90;;;27.40;;
850;SDS011;412;51.400;7.480;2023-06-01T07:59:30;42.57;;;27.10;;
850;SDS011;412;51.400;7.480;2023-06-01T08:01:58;39.40;;;27.70;;
850;SDS011;412;51.400;7.480;2023-06-01T08:04:25;46.67;;;28.13;;
850;SDS011;412;51.400;7.480;2023-06-01T08:06:52;39.23;;;27.17;;
850;SDS011;412;51.400;7.480;2023-06-01T08:09:21;44.47;;;29.10;;
850;SDS011;412;51.400;7.480;2023-06-01T08:11:49;40.10;;;27.87;;
850;SDS011;412;51.400;7.480;2023-06-01T08:14:15;43.17;;;27.53;;
850;SDS011;412;51.400;7.480;2023-06-01T08:16:42;41.57;;;28.10;;
850;SDS011;412;51.400;7.480;2023-06-01T08:19:08;45.33;;;27.73;;
850;SDS011;412;51.400;7.480;2023-06-01T08:21:34;40.53;;;28.13;;
850;SDS011;412;51.400;7.480;2023-06-01T08:24:00;38.07;;;26.70;;
850;SDS011;412;51.400;7.480;2023-06-01T08:26:27;41.67;;;28.70;;
850;SDS011;412;51.400;7.480;2023-06-01T08:28:53;41.87;;;28.17;;
850;SDS011;412;51.400;7.480;2023-06-01T08:31:22;43.50;;;30.20;;
850;SDS011;412;51.400;7.480;2023-06-01T08:33:50;41.77;;;27.40;;
850;SDS011;412;51.400;7.480;2023-06-01T08:36:16;42.63;;;29.47;;
850;SDS011;412;51.400;7.480;2023-06-01T08:38:43;38.33;;;28.07;;
850;SDS011;412;51.400;7.480;2023-06-01T08:41:25;42.20;;;30.23;;
850;SDS011;412;51.400;7.480;2023-06-01T08:44:10;39.67;;;27.83;;
850;SDS011;412;51.400;7.480;2023-06-01T08:46:36;46.37;;;33.10;;
850;SDS011;412;51.400;7.480;2023-06-01T08:49:06;39.23;;;28.13;;
850;SDS011;412;51.400;7.480;2023-06-01T08:51:35;39.43;;;28.27;;
850;SDS011;412;51.400;7.480;2023-06-01T08:54:03;39.40;;;30.47;;
850;SDS011;412;51.400;7.480;2023-06-01T08:56:30;33.70;;;27.07;;
850;SDS011;412;51.400;7.480;2023-06-01T08:58:56;36.60;;;27.13;;
850;SDS011;412;51.400;7.480;2023-06-01T09:01:24;36.70;;;27.13;;
850;SDS011;412;51.400;7.480;2023-06-01T09:03:51;37.03;;;26.27;;
850;SDS011;412;51.400;7.480;2023-06-01T09:06:17;33.87;;;25.80;;
850;SDS011;412;51.400;7.480;2023-06-01T09:08:46;33.57;;;25.43;;
850;SDS011;412;51.400;7.480;2023-06-01T09:11:15;30.70;;;24.27;;
850;SDS011;412;51.400;7.480;2023-06-01T09:13:41;33.07;;;26.10;;
850;SDS011;412;51.400;7.480;2023-06-01T09:16:07;32.97;;;25.03;;
850;SDS011;412;51.400;7.480;2023-06-01T09:18:33;33.37;;;24.83;;
850;SDS011;412;51.400;7.480;2023-06-01T09:21:11;32.40;;;25.17;;
850;SDS011;412;51.400;7.480;2023-06-01T09:23:40;31.70;;;26.03;;
850;SDS011;412;51.400;7.480;2023-06-01T09:26:13;26.20;;;23.33;;
850;SDS011;412;51.400;7.480;2023-06-01T09:34:07;28.67;;;22.40;;
850;SDS011;412;51.400;7.480;2023-06-01T09:36:34;30.27;;;23.60;;
850;SDS011;412;51.400;7.480;2023-06-01T09:39:04;25.60;;;19.90;;
850;SDS011;412;51.400;7.480;2023-06-01T09:44:36;23.67;;;20.70;;
850;SDS011;412;51.400;7.480;2023-06-01T09:47:04;21.43;;;19.13;;
850;SDS011;412;51.400;7.480;2023-06-01T09:49:40;19.80;;;17.70;;
850;SDS011;412;51.400;7.480;2023-06-01T09:52:11;18.03;;;16.10;;
850;SDS011;412;51.400;7.480;2023-06-01T09:54:44;21.10;;;17.90;;
850;SDS011;412;51.400;7.480;2023-06-01T09:57:11;20.13;;;17.77;;
850;SDS011;412;51.400;7.480;2023-06-01T09:59:45;19.20;;;17.17;;
850;SDS011;412;51.400;7.480;2023-06-01T10:02:12;21.40;;;19.10;;
850;SDS011;412;51.400;7.480;2023-06-01T10:04:40;18.47;;;16.50;;
850;SDS011;412;51.400;7.480;2023-06-01T10:07:07;19.90;;;17.80;;
850;SDS011;412;51.400;7.480;2023-06-01T10:09:36;20.30;;;18.30;;
850;SDS011;412;51.400;7.480;2023-06-01T10:12:04;20.27;;;17.53;;
850;SDS011;412;51.400;7.480;2023-06-01T10:14:30;19.70;;;17.57;;
850;SDS011;412;51.400;7.480;2023-06-01T10:16:57;19.27;;;16.70;;
850;SDS011;412;51.400;7.480;2023-06-01T10:19:23;17.37;;;15.60;;
850;SDS011;412;51.400;7.480;2023-06-01T10:21:49;18.67;;;16.77;;
850;SDS011;412;51.400;7.480;2023-06-01T10:24:18;19.20;;;17.17;;
850;SDS011;412;51.400;7.480;2023-06-01T10:29:17;21.80;;;17.00;;
850;SDS011;412;51.400;7.480;2023-06-01T10:31:43;18.27;;;15.97;;
850;SDS011;412;51.400;7.480;2023-06-01T10:34:10;22.63;;;18.70;;
850;SDS011;412;51.400;7.480;2023-06-01T10:39:21;18.33;;;16.40;;
850;SDS011;412;51.400;7.480;2023-06-01T10:52:35;16.80;;;14.43;;
850;SDS011;412;51.400;7.480;2023-06-01T10:57:35;19.23;;;16.70;;
850;SDS011;412;51.400;7.480;2023-06-01T11:08:06;16.40;;;13.50;;
850;SDS011;412;51.400;7.480;2023-06-01T11:13:27;14.17;;;12.77;;
850;SDS011;412;51.400;7.480;2023-06-01T11:21:24;13.87;;;12.47;;
850;SDS011;412;51.400;7.480;2023-06-01T11:23:59;14.63;;;12.43;;
850;SDS011;412;51.400;7.480;2023-06-01T11:26:30;16.67;;;13.23;;
850;SDS011;412;51.400;7.480;2023-06-01T11:31:35;14.07;;;12.80;;
850;SDS011;412;51.400;7.480;2023-06-01T11:34:06;16.50;;;13.57;;
850;SDS011;412;51.400;7.480;2023-06-01T11:36:36;13.60;;;12.20;;
850;SDS011;412;51.400;7.480;2023-06-01T11:39:04;14.00;;;12.60;;
850;SDS011;412;51.400;7.480;2023-06-01T11:41:33;13.30;;;12.10;;
850;SDS011;412;51.400;7.480;2023-06-01T11:44:00;16.43;;;14.73;;
850;SDS011;412;51.400;7.480;2023-06-01T11:46:26;17.10;;;12.40;;
850;SDS011;412;51.400;7.480;2023-06-01T11:51:30;13.23;;;11.87;;
850;SDS011;412;51.400;7.480;2023-06-01T11:53:57;15.13;;;13.53;;
850;SDS011;412;51.400;7.480;2023-06-01T11:56:33;13.63;;;12.23;;
850;SDS011;412;51.400;7.480;2023-06-01T11:59:01;14.27;;;12.60;;
850;SDS011;412;51.400;7.480;2023-06-01T12:01:33;14.57;;;13.10;;
850;SDS011;412;51.400;7.480;2023-06-01T12:04:02;18.60;;;12.93;;
850;SDS011;412;51.400;7.480;2023-06-01T12:06:29;14.83;;;13.17;;
850;SDS011;412;51.400;7.480;2023-06-01T12:08:56;15.00;;;13.50;;
850;SDS011;412;51.400;7.480;2023-06-01T12:11:23;20.13;;;18.23;;
850;SDS011;412;51.400;7.480;2023-06-01T12:13:54;15.53;;;13.90;;
850;SDS011;412;51.400;7.480;2023-06-01T12:16:20;16.33;;;14.00;;
850;SDS011;412;51.400;7.480;2023-06-01T12:18:47;17.40;;;15.57;;
850;SDS011;412;51.400;7.480;2023-06-01T12:21:12;17.20;;;15.50;;
850;SDS011;412;51.400;7.480;2023-06-01T12:23:39;16.90;;;13.87;;
850;SDS011;412;51.400;7.480;2023-06-01T12:26:05;16.53;;;14.93;;
850;SDS011;412;51.400;7.480;2023-06-01T12:28:48;15.27;;;13.87;;
850;SDS011;412;51.400;7.480;2023-06-01T12:31:20;15.73;;;14.23;;
850;SDS011;412;51.400;7.480;2023-06-01T12:33:46;18.00;;;14.23;;
850;SDS011;412;51.400;7.480;2023-06-01T12:36:32;14.77;;;12.50;;
850;SDS011;412;51.400;7.480;2023-06-01T12:39:02;13.40;;;12.07;;
850;SDS011;412;51.400;7.480;2023-06-01T12:41:29;15.03;;;13.60;;
850;SDS011;412;51.400;7.480;2023-06-01T12:43:56;15.07;;;13.57;;
850;SDS011;412;51.400;7.480;2023-06-01T12:48:50;16.73;;;14.20;;
850;SDS011;412;51.400;7.480;2023-06-01T12:51:18;16.83;;;14.93;;
850;SDS011;412;51.400;7.480;2023-06-01T12:53:45;17.00;;;15.20;;
850;SDS011;412;51.400;7.480;2023-06-01T12:56:11;16.97;;;15.17;;
850;SDS011;412;51.400;7.480;2023-06-01T12:58:38;17.63;;;14.93;;
850;SDS011;412;51.400;7.480;2023-06-01T13:01:04;16.00;;;14.30;;
850;SDS011;412;51.400;7.480;2023-06-01T13:03:30;19.00;;;15.27;;
850;SDS011;412;51.400;7.480;2023-06-01T13:05:56;18.73;;;16.50;;
850;SDS011;412;51.400;7.480;2023-06-01T13:08:22;17.27;;;15.47;;
850;SDS011;412;51.400;7.480;2023-06-01T13:10:49;17.17;;;15.43;;
850;SDS011;412;51.400;7.480;2023-06-01T13:13:15;18.13;;;16.40;;
850;SDS011;412;51.400;7.480;2023-06-01T13:15:41;18.63;;;16.83;;
850;SDS011;412;51.400;7.480;2023-06-01T13:18:08;17.90;;;16.00;;
850;SDS011;412;51.400;7.480;2023-06-01T13:20:34;20.10;;;15.70;;
850;SDS011;412;51.400;7.480;2023-06-01T13:23:01;18.03;;;16.13;;
850;SDS011;412;51.400;7.480;2023-06-01T13:25:28;18.77;;;16.80;;
850;SDS011;412;51.400;7.480;2023-06-01T13:27:55;16.80;;;14.87;;
850;SDS011;412;51.400;7.480;2023-06-01T13:30:21;16.00;;;14.00;;
850;SDS011;412;51.400;7.480;2023-06-01T13:32:47;15.37;;;13.77;;
850;SDS011;412;51.400;7.480;2023-06-01T13:35:13;16.00;;;11.93;;
850;SDS011;412;51.400;7.480;2023-06-01T13:37:39;16.20;;;14.40;;
850;SDS011;412;51.400;7.480;2023-06-01T13:40:05;17.37;;;15.60;;
850;SDS011;412;51.400;7.480;2023-06-01T13:42:31;17.27;;;15.50;;
850;SDS011;412;51.400;7.480;2023-06-01T13:45:00;17.03;;;13.87;;
850;SDS011;412;51.400;7.480;2023-06-01T13:47:26;18.07;;;16.17;;
850;SDS011;412;51.400;7.480;2023-06-01T13:49:51;17.53;;;15.73;;
850;SDS011;412;51.400;7.480;2023-06-01T13:52:17;18.03;;;16.17;;
850;SDS011;412;51.400;7.480;2023-06-01T13:54:43;18.00;;;16.00;;
850;SDS011;412;51.400;7.480;2023-06-01T13:57:09;17.20;;;14.93;;
850;SDS011;412;51.400;7.480;2023-06-01T13:59:35;17.50;;;15.30;;
850;SDS011;412;51.400;7.480;2023-06-01T14:02:03;17.83;;;15.93;;
850;SDS011;412;51.400;7.480;2023-06-01T14:04:30;17.87;;;15.97;;
850;SDS011;412;51.400;7.480;2023-06-01T14:06:56;18.63;;;16.67;;
850;SDS011;412;51.400;7.480;2023-06-01T14:09:22;19.53;;;17.27;;
850;SDS011;412;51.400;7.480;2023-06-01T14:11:48;17.93;;;16.03;;
850;SDS011;412;51.400;7.480;2023-06-01T14:14:14;19.07;;;16.43;;
850;SDS011;412;51.400;7.480;2023-06-01T14:16:39;17.30;;;15.50;;
850;SDS011;412;51.400;7.480;2023-06-01T14:19:05;16.13;;;14.43;;
850;SDS011;412;51.400;7.480;2023-06-01T14:21:31;24.93;;;16.90;;
850;SDS011;412;51.400;7.480;2023-06-01T14:23:59;17.13;;;15.40;;
850;SDS011;412;51.400;7.480;2023-06-01T14:26:25;16.93;;;14.90;;
850;SDS011;412;51.400;7.480;2023-06-01T14:28:52;15.97;;;14.37;;
850;SDS011;412;51.400;7.480;2023-06-01T14:31:18;16.97;;;15.37;;
850;SDS011;412;51.400;7.480;2023-06-01T14:33:45;15.93;;;14.33;;
850;SDS011;412;51.400;7.480;2023-06-01T14:36:11;14.97;;;13.50;;
850;SDS011;412;51.400;7.480;2023-06-01T14:38:37;14.20;;;12.80;;
850;SDS011;412;51.400;7.480;2023-06-01T14:41:02;14.60;;;12.73;;
850;SDS011;412;51.400;7.480;2023-06-01T14:43:28;15.23;;;13.63;;
850;SDS011;412;51.400;7.480;2023-06-01T14:45:55;15.20;;;13.53;;
850;SDS011;412;51.400;7.480;2023-06-01T14:48:22;17.30;;;15.53;;
850;SDS011;412;51.400;7.480;2023-06-01T14:50:47;16.13;;;13.33;;
850;SDS011;412;51.400;7.480;2023-06-01T14:53:13;13.67;;;12.40;;
850;SDS011;412;51.400;7.480;2023-06-01T14:55:39;12.70;;;10.97;;
850;SDS011;412;51.400;7.480;2023-06-01T14:58:06;15.63;;;14.10;;
850;SDS011;412;51.400;7.480;2023-06-01T15:00:32;14.33;;;13.03;;
850;SDS011;412;51.400;7.480;2023-06-01T15:02:58;15.73;;;14.23;;
850;SDS011;412;51.400;7.480;2023-06-01T15:05:24;15.10;;;13.60;;
850;SDS011;412;51.400;7.480;2023-06-01T15:07:49;14.50;;;13.10;;
850;SDS011;412;51.400;7.480;2023-06-01T15:10:15;16.10;;;14.50;;
850;SDS011;412;51.400;7.480;2023-06-01T15:12:41;14.23;;;12.73;;
850;SDS011;412;51.400;7.480;2023-06-01T15:15:06;14.00;;;12.70;;
850;SDS011;412;51.400;7.480;2023-06-01T15:17:33;14.30;;;12.80;;
850;SDS011;412;51.400;7.480;2023-06-01T15:19:58;11.93;;;10.73;;
850;SDS011;412;51.400;7.480;2023-06-01T15:22:24;12.40;;;11.10;;
850;SDS011;412;51.400;7.480;2023-06-01T15:24:50;12.37;;;10.90;;
850;SDS011;412;51.400;7.480;2023-06-01T15:27:15;14.30;;;12.90;;
850;SDS011;412;51.400;7.480;2023-06-01T15:29:41;12.60;;;11.40;;
850;SDS011;412;51.400;7.480;2023-06-01T15:32:07;12.20;;;10.60;;
850;SDS011;412;51.400;7.480;2023-06-01T15:34:33;12.20;;;11.00;;
850;SDS011;412;51.400;7.480;2023-06-01T15:36:59;11.67;;;10.20;;
850;SDS011;412;51.400;7.480;2023-06-01T15:41:58;10.67;;;9.67;;
850;SDS011;412;51.400;7.480;2023-06-01T15:44:24;10.83;;;9.77;;
850;SDS011;412;51.400;7.480;2023-06-01T15:46:50;11.87;;;10.60;;
850;SDS011;412;51.400;7.480;2023-06-01T15:49:15;12.17;;;10.97;;
850;SDS011;412;51.400;7.480;2023-06-01T15:51:41;13.37;;;12.17;;
850;SDS011;412;51.400;7.480;2023-06-01T15:54:07;11.30;;;10.30;;
850;SDS011;412;51.400;7.480;2023-06-01T15:56:33;10.90;;;9.90;;
850;SDS011;412;51.400;7.480;2023-06-01T15:58:59;11.10;;;10.10;;
850;SDS011;412;51.400;7.480;2023-06-01T16:01:24;12.80;;;10.80;;
850;SDS011;412;51.400;7.480;2023-06-01T16:03:50;13.03;;;11.53;;
850;SDS011;412;51.400;7.480;2023-06-01T16:06:16;11.73;;;10.53;;
850;SDS011;412;51.400;7.480;2023-06-01T16:08:41;12.03;;;10.83;;
850;SDS011;412;51.400;7.480;2023-06-01T16:11:07;12.27;;;10.17;;
850;SDS011;412;51.400;7.480;2023-06-01T16:13:33;11.90;;;10.80;;
850;SDS011;412;51.400;7.480;2023-06-01T16:15:59;11.83;;;10.70;;
850;SDS011;412;51.400;7.480;2023-06-01T16:18:25;13.20;;;12.00;;
850;SDS011;412;51.400;7.480;2023-06-01T16:20:51;11.70;;;9.90;;
850;SDS011;412;51.400;7.480;2023-06-01T16:23:16;11.47;;;10.47;;
850;SDS011;412;51.400;7.480;2023-06-01T16:25:42;11.87;;;10.77;;
850;SDS011;412;51.400;7.480;2023-06-01T16:28:08;11.83;;;10.63;;
850;SDS011;412;51.400;7.480;2023-06-01T16:30:34;10.33;;;9.43;;
850;SDS011;412;51.400;7.480;2023-06-01T16:32:59;10.53;;;9.43;;